createdAt,value
2017-11-03T00:01:48.651Z,31.40
2017-11-03T00:04:16.144Z,31.60
2017-11-03T00:06:44.391Z,32.83
2017-11-03T00:09:11.887Z,31.80
2017-11-03T00:11:39.364Z,31.90
2017-11-03T00:14:06.989Z,33.43
2017-11-03T00:16:35.233Z,30.13
2017-11-03T00:19:02.744Z,32.57
2017-11-03T00:21:30.235Z,34.47
2017-11-03T00:23:57.715Z,31.07
2017-11-03T00:26:25.974Z,34.20
2017-11-03T00:28:53.464Z,34.40
2017-11-03T00:31:20.983Z,34.10
2017-11-03T00:33:48.461Z,33.50
2017-11-03T00:36:15.936Z,34.97
2017-11-03T00:38:43.436Z,33.33
2017-11-03T00:41:10.915Z,36.27
2017-11-03T00:43:38.403Z,36.67
2017-11-03T00:46:05.879Z,35.70
2017-11-03T00:48:34.147Z,35.80
2017-11-03T00:51:01.625Z,35.27
2017-11-03T00:53:29.176Z,32.90
2017-11-03T00:55:57.443Z,35.40
2017-11-03T00:58:25.696Z,36.50
2017-11-03T01:00:53.186Z,35.07
2017-11-03T01:03:21.423Z,35.47
2017-11-03T01:05:48.933Z,34.80
2017-11-03T01:08:17.171Z,35.50
2017-11-03T01:10:44.656Z,33.90
2017-11-03T01:13:12.920Z,35.13
2017-11-03T01:15:40.493Z,32.73
2017-11-03T01:18:08.755Z,34.70
2017-11-03T01:20:36.229Z,34.30
2017-11-03T01:23:04.504Z,35.63
2017-11-03T01:25:32.759Z,36.17
2017-11-03T01:28:00.248Z,36.30
2017-11-03T01:30:27.764Z,35.03
2017-11-03T01:32:55.253Z,36.20
2017-11-03T01:35:23.500Z,34.73
2017-11-03T01:37:50.991Z,36.77
2017-11-03T01:40:19.245Z,36.00
2017-11-03T01:42:46.740Z,35.67
2017-11-03T01:45:14.983Z,34.57
2017-11-03T01:47:42.557Z,34.40
2017-11-03T01:50:10.839Z,34.27
2017-11-03T01:52:39.082Z,36.00
2017-11-03T01:55:06.580Z,36.27
2017-11-03T01:57:34.823Z,37.40
2017-11-03T02:00:02.317Z,35.03
2017-11-03T02:02:30.569Z,33.57
2017-11-03T02:04:58.871Z,35.10
2017-11-03T02:07:27.114Z,35.43
2017-11-03T02:09:54.589Z,35.27
2017-11-03T02:12:22.852Z,31.33
2017-11-03T02:14:50.326Z,32.47
2017-11-03T02:17:18.585Z,32.60
2017-11-03T02:19:46.060Z,30.90
2017-11-03T02:22:14.320Z,33.37
2017-11-03T02:24:43.312Z,32.13
2017-11-03T02:27:10.794Z,33.00
2017-11-03T02:29:39.055Z,29.80
2017-11-03T02:32:06.532Z,31.30
2017-11-03T02:34:34.791Z,32.10
2017-11-03T02:37:02.271Z,32.67
2017-11-03T02:39:29.813Z,30.67
2017-11-03T02:41:58.059Z,31.67
2017-11-03T02:44:26.120Z,29.90
2017-11-03T02:46:53.620Z,30.23
2017-11-03T02:49:21.866Z,32.67
2017-11-03T02:51:49.352Z,31.97
2017-11-03T02:54:17.608Z,31.50
2017-11-03T02:56:45.194Z,31.70
2017-11-03T02:59:13.440Z,31.33
2017-11-03T03:01:40.920Z,32.27
2017-11-03T03:04:08.411Z,32.50
2017-11-03T03:06:35.893Z,33.47
2017-11-03T03:09:03.385Z,31.87
2017-11-03T03:11:30.860Z,32.60
2017-11-03T03:13:59.130Z,32.40
2017-11-03T03:16:26.632Z,34.50
2017-11-03T03:18:54.107Z,32.50
2017-11-03T03:21:21.603Z,31.57
2017-11-03T03:23:49.088Z,33.00
2017-11-03T03:26:16.589Z,30.60
2017-11-03T03:28:44.074Z,30.80
2017-11-03T03:31:11.568Z,31.70
2017-11-03T03:33:39.049Z,31.60
2017-11-03T03:36:06.535Z,32.03
2017-11-03T03:38:34.123Z,30.10
2017-11-03T03:41:02.374Z,31.57
2017-11-03T03:43:29.860Z,30.73
2017-11-03T03:45:58.108Z,30.17
2017-11-03T03:48:25.600Z,32.17
2017-11-03T03:50:53.848Z,32.63
2017-11-03T03:53:21.327Z,31.27
2017-11-03T03:55:49.597Z,32.47
2017-11-03T03:58:17.079Z,31.90
2017-11-03T04:00:45.340Z,32.00
2017-11-03T04:03:13.583Z,30.07
2017-11-03T04:05:41.083Z,30.67
2017-11-03T04:08:09.323Z,32.10
2017-11-03T04:10:36.795Z,30.87
2017-11-03T04:13:04.288Z,30.13
2017-11-03T04:15:31.772Z,32.50
2017-11-03T04:17:59.263Z,31.63
2017-11-03T04:20:26.740Z,30.60
2017-11-03T04:22:55.020Z,32.27
2017-11-03T04:25:23.263Z,30.33
2017-11-03T04:27:50.743Z,32.93
2017-11-03T04:30:18.240Z,29.67
2017-11-03T04:32:45.711Z,30.70
2017-11-03T04:35:13.208Z,30.40
2017-11-03T04:37:40.696Z,28.70
2017-11-03T04:40:08.959Z,31.97
2017-11-03T04:42:37.203Z,30.97
2017-11-03T04:45:04.677Z,30.87
2017-11-03T04:47:32.168Z,31.13
2017-11-03T04:50:00.416Z,32.30
2017-11-03T04:52:27.923Z,31.40
2017-11-03T04:54:55.415Z,31.63
2017-11-03T04:57:22.912Z,34.13
2017-11-03T04:59:51.161Z,32.63
2017-11-03T05:02:18.658Z,31.90
2017-11-03T05:04:46.161Z,32.83
2017-11-03T05:07:13.635Z,31.57
2017-11-03T05:09:41.133Z,32.43
2017-11-03T05:12:09.384Z,32.90
2017-11-03T05:14:37.665Z,29.73
2017-11-03T05:17:06.717Z,30.70
2017-11-03T05:19:34.195Z,30.40
2017-11-03T05:22:01.690Z,30.73
2017-11-03T05:24:29.939Z,32.70
2017-11-03T05:26:57.432Z,32.20
2017-11-03T05:29:25.669Z,32.60
2017-11-03T05:31:53.168Z,33.90
2017-11-03T05:34:20.651Z,33.10
2017-11-03T05:36:48.132Z,30.87
2017-11-03T05:39:15.625Z,30.80
2017-11-03T05:41:43.871Z,31.47
2017-11-03T05:44:11.364Z,32.83
2017-11-03T05:46:39.610Z,32.47
2017-11-03T05:49:07.107Z,31.87
2017-11-03T05:51:35.347Z,32.87
2017-11-03T05:54:02.833Z,34.07
2017-11-03T05:56:31.105Z,34.60
2017-11-03T05:58:59.347Z,33.57
2017-11-03T06:01:26.840Z,35.30
2017-11-03T06:03:55.080Z,34.53
2017-11-03T06:06:22.576Z,35.60
2017-11-03T06:08:50.815Z,35.10
2017-11-03T06:11:18.291Z,36.57
2017-11-03T06:13:45.783Z,34.50
2017-11-03T06:16:14.033Z,36.60
2017-11-03T06:18:41.537Z,35.40
2017-11-03T06:21:09.033Z,33.00
2017-11-03T06:23:36.531Z,34.60
2017-11-03T06:26:04.775Z,32.20
2017-11-03T06:28:32.265Z,33.30
2017-11-03T06:31:00.523Z,31.43
2017-11-03T06:33:28.024Z,32.37
2017-11-03T06:35:55.517Z,33.60
2017-11-03T06:38:22.995Z,30.60
2017-11-03T06:40:51.256Z,33.57
2017-11-03T06:43:18.740Z,34.70
2017-11-03T06:45:46.980Z,31.47
2017-11-03T06:48:14.471Z,34.00
2017-11-03T06:50:42.718Z,31.97
2017-11-03T06:53:10.211Z,30.63
2017-11-03T06:55:38.457Z,31.37
2017-11-03T06:58:05.949Z,29.10
2017-11-03T07:00:34.191Z,32.60
2017-11-03T07:03:01.674Z,30.63
2017-11-03T07:05:29.944Z,30.30
2017-11-03T07:07:57.421Z,29.83
2017-11-03T07:10:25.699Z,30.60
2017-11-03T07:12:53.947Z,29.70
2017-11-03T07:15:21.428Z,27.97
2017-11-03T07:17:49.688Z,28.70
2017-11-03T07:20:17.168Z,27.60
2017-11-03T07:22:45.427Z,26.80
2017-11-03T07:25:12.913Z,25.90
2017-11-03T07:27:40.393Z,24.83
2017-11-03T07:30:07.899Z,26.77
2017-11-03T07:32:35.378Z,26.07
2017-11-03T07:35:03.637Z,25.67
2017-11-03T07:37:32.900Z,24.83
2017-11-03T07:40:01.327Z,25.93
2017-11-03T07:42:29.573Z,26.40
2017-11-03T07:44:57.053Z,26.37
2017-11-03T07:47:25.318Z,24.53
2017-11-03T07:49:52.804Z,26.30
2017-11-03T07:52:21.069Z,25.43
2017-11-03T07:54:49.381Z,25.50
2017-11-03T07:57:16.880Z,24.40
2017-11-03T07:59:44.360Z,24.93
2017-11-03T08:02:12.604Z,25.80
2017-11-03T08:04:40.099Z,26.17
2017-11-03T08:07:08.343Z,26.33
2017-11-03T08:09:35.836Z,25.60
2017-11-03T08:12:04.077Z,25.00
2017-11-03T08:14:31.587Z,25.47
2017-11-03T08:16:59.077Z,25.80
2017-11-03T08:19:26.556Z,25.80
2017-11-03T08:21:54.044Z,24.47
2017-11-03T08:24:22.316Z,24.63
2017-11-03T08:26:50.599Z,25.40
2017-11-03T08:29:18.852Z,26.87
2017-11-03T08:31:46.351Z,25.20
2017-11-03T08:34:13.832Z,25.23
2017-11-03T08:36:41.317Z,25.70
2017-11-03T08:39:08.810Z,27.17
2017-11-03T08:41:37.060Z,26.70
2017-11-03T08:44:04.553Z,27.37
2017-11-03T08:46:32.795Z,25.47
2017-11-03T08:49:00.292Z,25.87
2017-11-03T08:51:28.536Z,25.73
2017-11-03T08:53:56.011Z,24.80
2017-11-03T08:56:24.343Z,25.77
2017-11-03T08:58:51.816Z,25.07
2017-11-03T09:01:19.333Z,24.53
2017-11-03T09:03:46.807Z,24.67
2017-11-03T09:06:14.304Z,25.50
2017-11-03T09:08:41.783Z,23.37
2017-11-03T09:11:10.028Z,24.80
2017-11-03T09:13:37.515Z,24.83
2017-11-03T09:16:05.760Z,25.00
2017-11-03T09:18:33.265Z,25.73
2017-11-03T09:21:01.526Z,23.90
2017-11-03T09:23:29.799Z,23.70
2017-11-03T09:25:58.048Z,25.60
2017-11-03T09:28:25.532Z,25.00
2017-11-03T09:30:53.814Z,25.07
2017-11-03T09:33:22.059Z,25.70
2017-11-03T09:35:49.586Z,23.40
2017-11-03T09:38:17.076Z,24.63
2017-11-03T09:40:44.572Z,25.67
2017-11-03T09:43:12.839Z,24.23
2017-11-03T09:45:41.156Z,23.50
2017-11-03T09:48:08.679Z,23.50
2017-11-03T09:50:36.949Z,23.97
2017-11-03T09:53:04.438Z,24.90
2017-11-03T09:55:31.919Z,25.30
2017-11-03T09:57:59.421Z,22.97
2017-11-03T10:00:28.407Z,24.57
2017-11-03T10:02:55.883Z,23.93
2017-11-03T10:05:24.155Z,23.80
2017-11-03T10:07:52.404Z,22.90
2017-11-03T10:10:19.991Z,24.00
2017-11-03T10:12:48.242Z,22.63
2017-11-03T10:15:15.740Z,24.30
2017-11-03T10:17:43.979Z,28.03
2017-11-03T10:20:11.483Z,24.43
2017-11-03T10:22:38.967Z,23.57
2017-11-03T10:25:06.445Z,23.90
2017-11-03T10:27:33.952Z,22.70
2017-11-03T10:30:01.496Z,25.40
2017-11-03T10:32:29.763Z,25.17
2017-11-03T10:34:57.248Z,25.50
2017-11-03T10:37:25.516Z,24.63
